KVLD/VLD METAR and TAF weather

Enter ICAO airport designator
Station Type Date Time Source
KVLD METAR 2019/02/22 23:53 UTC NOAA

KVLD 222353Z AUTO 00000KT 10SM CLR 23/18 A3014 RMK AO2 SLP213 T02280183 10294 20228 53005


Station Type Date Time Source
KVLD Decoded METAR 2019/02/22 23:53 UTC NOAA

VALDOSTA REGIONAL AIRPORT, GA, United States (KVLD) 30-47N 083-16W
Feb 22, 2019 - 06:53 PM EST / 2019.02.22 2353 UTC
Wind: Calm:0
Visibility: 10 mile(s):0
Sky conditions: clear
Temperature: 73.0 F (22.8 C)
Dew Point: 64.9 F (18.3 C)
Relative Humidity: 75%
Pressure (altimeter): 30.14 in. Hg (1020 hPa)
Pressure tendency: 0.01 inches (0.5 hPa) higher than three hours ago
ob: KVLD 222353Z AUTO 00000KT 10SM CLR 23/18 A3014 RMK AO2 SLP213 T02280183 10294 20228 53005
cycle: 0

Station Type Date Time Source
KVLD TAF 2019/02/22 18:39 UTC NOAA

TAF KVLD 221735Z 2218/2318 18007KT P6SM BKN035
FM231000 VRB03KT 1/2SM FG BKN004
FM231500 13005KT P6SM BKN100


Example: see airport list